Time;durP1;ratioP1;P1;durP2;ratioP2;P2;SDS_P1;SDS_P2;PMS_P1;PMS_P2;Temp;Humidity;BMP_temperature;BMP_pressure;BME280_temperature;BME280_humidity;BME280_pressure;Samples;Min_cycle;Max_cycle;Signal;HPM_P1;HPM_P2
2024/03/04 00:00:11;;;;;;;8.60;7.80;;;10.40;99.90;;;;;;5059224;28;20543;-82
2024/03/04 00:02:39;;;;;;;10.17;7.43;;;10.40;99.90;;;;;;5063285;28;20479;-82
2024/03/04 00:05:08;;;;;;;8.70;8.00;;;10.40;99.90;;;;;;5060740;28;20976;-82
2024/03/04 00:07:38;;;;;;;7.50;6.80;;;10.40;99.90;;;;;;5059648;28;20441;-83
2024/03/04 00:10:08;;;;;;;10.53;7.13;;;10.30;99.90;;;;;;5061767;28;20454;-82
2024/03/04 00:12:36;;;;;;;8.23;7.20;;;10.20;99.90;;;;;;5058278;28;20547;-82
2024/03/04 00:15:05;;;;;;;9.37;8.20;;;10.30;99.90;;;;;;5057603;28;20457;-80
2024/03/04 00:17:34;;;;;;;8.03;6.70;;;10.20;99.90;;;;;;5061277;28;20921;-81
2024/03/04 00:20:06;;;;;;;9.63;7.53;;;10.20;99.90;;;;;;5062199;28;20446;-81
2024/03/04 00:22:35;;;;;;;8.70;6.77;;;10.10;99.90;;;;;;5057473;28;20471;-81
2024/03/04 00:25:06;;;;;;;7.10;6.40;;;10.10;99.90;;;;;;5058266;28;21002;-83
2024/03/04 00:27:34;;;;;;;10.30;8.27;;;10.00;99.90;;;;;;5059685;28;20463;-82
2024/03/04 00:30:03;;;;;;;8.17;6.83;;;10.00;99.90;;;;;;5062163;28;20435;-82
2024/03/04 00:32:32;;;;;;;8.43;7.27;;;9.90;99.90;;;;;;5059053;28;20550;-82
2024/03/04 00:35:01;;;;;;;9.50;7.77;;;9.90;99.90;;;;;;5061909;28;20456;-81
2024/03/04 00:37:29;;;;;;;11.13;8.70;;;10.00;99.90;;;;;;5058945;28;20468;-81
2024/03/04 00:39:57;;;;;;;9.83;8.60;;;9.90;99.90;;;;;;5058351;28;20435;-82
2024/03/04 00:42:27;;;;;;;10.60;8.10;;;9.90;99.90;;;;;;5059506;28;20521;-81
2024/03/04 00:44:55;;;;;;;9.03;7.93;;;10.00;99.90;;;;;;5063696;28;20451;-83
2024/03/04 00:47:24;;;;;;;9.60;7.83;;;10.00;99.90;;;;;;5060233;28;20858;-81
2024/03/04 00:49:52;;;;;;;9.67;7.87;;;10.00;99.90;;;;;;5057239;28;21029;-82
2024/03/04 00:52:20;;;;;;;9.93;7.73;;;10.00;99.90;;;;;;5060481;28;20538;-83
2024/03/04 00:54:48;;;;;;;9.37;7.87;;;9.80;99.90;;;;;;5060168;28;20805;-81
2024/03/04 00:57:17;;;;;;;8.27;7.47;;;9.80;99.90;;;;;;5059610;28;20467;-82
2024/03/04 00:59:46;;;;;;;10.65;8.88;;;9.80;99.90;;;;;;5061663;28;20431;-83
2024/03/04 01:02:14;;;;;;;9.80;8.80;;;9.70;99.90;;;;;;5061879;28;20218;-84
2024/03/04 01:04:45;;;;;;;7.90;7.10;;;9.90;99.90;;;;;;5055035;28;20458;-82
2024/03/04 01:07:15;;;;;;;8.80;7.90;;;10.00;99.90;;;;;;5056444;28;20525;-82
2024/03/04 01:09:43;;;;;;;9.80;6.97;;;10.00;99.90;;;;;;5052326;28;20451;-82
2024/03/04 01:12:11;;;;;;;8.40;7.60;;;9.90;99.90;;;;;;5056425;28;20436;-82
2024/03/04 01:14:40;;;;;;;9.13;7.67;;;9.90;99.90;;;;;;5055378;28;20442;-82
2024/03/04 01:17:16;;;;;;;9.17;8.13;;;9.80;99.90;;;;;;5054913;28;20473;-82
2024/03/04 01:19:46;;;;;;;11.10;8.10;;;9.90;99.90;;;;;;5055945;28;20447;-82
2024/03/04 01:22:16;;;;;;;8.10;7.10;;;9.90;99.90;;;;;;5052747;28;20558;-83
2024/03/04 01:24:45;;;;;;;8.90;7.77;;;9.80;99.90;;;;;;5056129;28;20486;-81
2024/03/04 01:27:14;;;;;;;8.00;6.80;;;9.90;99.90;;;;;;5056193;28;20497;-83
2024/03/04 01:29:42;;;;;;;8.73;7.60;;;9.90;99.90;;;;;;5056060;28;20456;-82
2024/03/04 01:32:12;;;;;;;8.17;7.37;;;9.90;99.90;;;;;;5059188;28;20451;-82
2024/03/04 01:34:40;;;;;;;7.67;6.83;;;9.90;99.90;;;;;;5057224;28;20490;-84
2024/03/04 01:37:09;;;;;;;8.60;7.80;;;9.90;99.90;;;;;;5055533;28;20472;-81
2024/03/04 01:39:38;;;;;;;8.70;7.80;;;9.80;99.90;;;;;;5057704;28;20454;-84
2024/03/04 01:42:06;;;;;;;11.40;9.63;;;9.80;99.90;;;;;;5055974;28;20475;-83
2024/03/04 01:44:36;;;;;;;11.50;10.00;;;9.80;99.90;;;;;;5059224;28;20553;-85
2024/03/04 01:47:10;;;;;;;12.20;10.13;;;9.90;99.90;;;;;;5056744;28;20529;-81
2024/03/04 01:49:39;;;;;;;10.70;9.47;;;9.80;99.90;;;;;;5061083;28;20483;-82
2024/03/04 01:52:08;;;;;;;10.83;9.23;;;9.90;99.90;;;;;;5060025;28;20458;-82
2024/03/04 01:54:38;;;;;;;9.73;8.73;;;9.90;99.90;;;;;;5060657;28;20443;-82
2024/03/04 01:57:08;;;;;;;11.93;8.60;;;9.80;99.90;;;;;;5065594;28;20463;-82
2024/03/04 01:59:37;;;;;;;10.20;9.17;;;9.90;99.90;;;;;;5062506;28;20538;-82
2024/03/04 02:02:06;;;;;;;8.40;7.60;;;9.90;99.90;;;;;;5059432;28;20469;-82
2024/03/04 02:04:36;;;;;;;10.37;9.37;;;9.90;99.90;;;;;;5057880;28;20547;-82
2024/03/04 02:07:06;;;;;;;11.47;7.70;;;9.80;99.90;;;;;;5055247;28;22437;-80
2024/03/04 02:09:38;;;;;;;25.63;8.40;;;9.80;99.90;;;;;;5057583;28;20453;-82
2024/03/04 02:12:06;;;;;;;9.00;8.10;;;9.70;99.90;;;;;;5057503;28;20456;-82
2024/03/04 02:14:35;;;;;;;8.10;7.27;;;9.70;99.90;;;;;;5059660;28;20948;-83
2024/03/04 02:17:05;;;;;;;9.70;7.23;;;9.70;99.90;;;;;;5054284;28;20482;-81
2024/03/04 02:19:33;;;;;;;9.03;7.93;;;9.70;99.90;;;;;;5054438;28;20504;-82
2024/03/04 02:22:08;;;;;;;10.07;8.97;;;9.60;99.90;;;;;;5053776;28;20470;-84
2024/03/04 02:24:38;;;;;;;9.03;8.13;;;9.60;99.90;;;;;;5056962;28;21008;-82
2024/03/04 02:27:06;;;;;;;10.67;8.13;;;9.50;99.90;;;;;;5057334;28;21054;-81
2024/03/04 02:29:34;;;;;;;8.70;7.80;;;9.60;99.90;;;;;;5060881;28;20452;-83
2024/03/04 02:32:03;;;;;;;7.77;6.97;;;9.40;99.90;;;;;;5063127;28;20455;-82
2024/03/04 02:34:31;;;;;;;8.50;6.90;;;9.40;99.90;;;;;;5062531;28;20450;-83
2024/03/04 02:37:00;;;;;;;7.97;7.27;;;9.30;99.90;;;;;;5060425;28;20463;-80
2024/03/04 02:39:29;;;;;;;7.50;6.90;;;9.30;99.90;;;;;;5072536;28;20470;-82
2024/03/04 02:41:58;;;;;;;8.07;6.83;;;9.20;99.90;;;;;;5067847;28;20443;-82
2024/03/04 02:44:27;;;;;;;7.73;6.83;;;9.20;99.90;;;;;;5066501;28;20478;-81
2024/03/04 02:46:56;;;;;;;7.60;6.87;;;9.20;99.90;;;;;;5066474;28;20479;-84
2024/03/04 02:49:24;;;;;;;8.77;6.80;;;9.20;99.90;;;;;;5065300;28;20470;-82
2024/03/04 02:51:52;;;;;;;6.70;5.97;;;9.10;99.90;;;;;;5065256;28;20482;-83
2024/03/04 02:54:20;;;;;;;7.17;6.47;;;9.10;99.90;;;;;;5065073;28;20450;-82
2024/03/04 02:56:48;;;;;;;8.07;6.80;;;9.10;99.90;;;;;;5063875;28;20570;-82
2024/03/04 02:59:19;;;;;;;9.33;8.03;;;9.20;99.90;;;;;;5061873;28;20456;-80
2024/03/04 03:01:48;;;;;;;8.83;7.80;;;9.20;99.90;;;;;;5059143;28;20468;-81
2024/03/04 03:04:16;;;;;;;8.03;7.23;;;9.20;99.90;;;;;;5061302;28;20471;-80
2024/03/04 03:06:45;;;;;;;10.20;7.83;;;9.10;99.90;;;;;;5060201;28;20471;-81
2024/03/04 03:09:13;;;;;;;10.50;9.30;;;9.10;99.90;;;;;;5058921;28;21610;-80
2024/03/04 03:11:41;;;;;;;8.57;7.67;;;9.10;99.90;;;;;;5060991;28;20463;-79
2024/03/04 03:14:10;;;;;;;9.10;8.13;;;9.10;99.90;;;;;;5059147;28;20898;-82
2024/03/04 03:16:39;;;;;;;9.50;8.60;;;9.10;99.90;;;;;;5060103;28;20521;-82
2024/03/04 03:19:07;;;;;;;11.93;8.07;;;9.00;99.90;;;;;;5059937;28;20443;-82
2024/03/04 03:21:36;;;;;;;7.93;7.30;;;9.10;99.90;;;;;;5052960;28;20447;-80
2024/03/04 03:24:05;;;;;;;9.97;9.07;;;9.10;99.90;;;;;;5055615;28;20485;-80
2024/03/04 03:26:33;;;;;;;11.40;9.27;;;9.20;99.90;;;;;;5061069;28;20479;-81
2024/03/04 03:29:01;;;;;;;10.47;9.37;;;9.10;99.90;;;;;;5060898;28;20535;-80
2024/03/04 03:31:29;;;;;;;9.80;8.80;;;9.20;99.90;;;;;;5060947;28;20462;-82
2024/03/04 03:33:59;;;;;;;11.70;9.13;;;9.30;99.90;;;;;;5056066;28;20444;-81
2024/03/04 03:36:27;;;;;;;10.17;8.97;;;9.30;99.90;;;;;;5058850;28;20474;-81
2024/03/04 03:38:55;;;;;;;12.87;10.27;;;9.30;99.90;;;;;;5055708;28;20458;-80
2024/03/04 03:41:23;;;;;;;11.80;10.60;;;9.30;99.90;;;;;;5057504;28;20454;-83
2024/03/04 03:43:51;;;;;;;10.00;9.00;;;9.30;99.90;;;;;;5058496;28;20479;-82
2024/03/04 03:46:19;;;;;;;11.00;9.90;;;9.40;99.90;;;;;;5060859;28;20462;-81
2024/03/04 03:48:47;;;;;;;10.70;9.70;;;9.40;99.90;;;;;;5060395;28;20460;-82
2024/03/04 03:51:17;;;;;;;11.27;9.13;;;9.40;99.90;;;;;;5063296;28;20707;-81
2024/03/04 03:53:45;;;;;;;9.97;9.03;;;9.50;99.90;;;;;;5059522;28;20444;-83
2024/03/04 03:56:13;;;;;;;9.53;8.63;;;9.40;99.90;;;;;;5058237;28;20516;-82
2024/03/04 03:58:41;;;;;;;10.90;8.53;;;9.40;99.90;;;;;;5060763;28;20443;-82
2024/03/04 04:01:10;;;;;;;8.90;8.10;;;9.50;99.90;;;;;;5055140;28;20455;-82
2024/03/04 04:03:38;;;;;;;11.03;9.57;;;9.50;99.90;;;;;;5058253;28;20489;-83
2024/03/04 04:06:07;;;;;;;10.10;9.20;;;9.60;99.90;;;;;;5060355;28;20964;-81
2024/03/04 04:08:36;;;;;;;8.90;8.10;;;9.60;99.90;;;;;;5059798;28;20446;-81
2024/03/04 04:11:04;;;;;;;10.40;9.37;;;9.60;99.90;;;;;;5059055;28;20485;-82
2024/03/04 04:13:32;;;;;;;8.27;7.43;;;9.60;99.90;;;;;;5057713;28;20478;-83
2024/03/04 04:16:00;;;;;;;9.33;8.40;;;9.60;99.90;;;;;;5057975;28;20581;-81
2024/03/04 04:18:29;;;;;;;11.87;9.03;;;9.60;99.90;;;;;;5060274;28;20454;-82
2024/03/04 04:20:57;;;;;;;8.77;7.87;;;9.60;99.90;;;;;;5057923;28;20465;-82
2024/03/04 04:23:25;;;;;;;11.23;10.03;;;9.50;99.90;;;;;;5057560;28;21105;-83
2024/03/04 04:25:55;;;;;;;9.50;8.43;;;9.50;99.90;;;;;;5059559;28;21067;-83
2024/03/04 04:28:25;;;;;;;12.87;9.60;;;9.40;99.90;;;;;;5060127;28;21008;-83
2024/03/04 04:30:53;;;;;;;10.20;9.13;;;9.40;99.90;;;;;;5057727;28;21091;-82
2024/03/04 04:33:22;;;;;;;10.53;9.43;;;9.50;99.90;;;;;;5058524;28;20441;-81
2024/03/04 04:35:51;;;;;;;9.40;8.23;;;9.50;99.90;;;;;;5061276;28;20612;-82
2024/03/04 04:38:20;;;;;;;11.23;9.30;;;9.60;99.90;;;;;;5057231;28;20447;-83
2024/03/04 04:40:50;;;;;;;10.20;9.20;;;9.60;99.90;;;;;;5059365;28;20451;-82
2024/03/04 04:43:20;;;;;;;10.67;9.67;;;9.70;99.90;;;;;;5058373;28;20443;-83
2024/03/04 04:45:50;;;;;;;10.00;9.00;;;9.70;99.90;;;;;;5056284;28;20481;-82
2024/03/04 04:48:18;;;;;;;12.23;8.77;;;9.60;99.90;;;;;;5055735;28;20798;-82
2024/03/04 04:50:47;;;;;;;9.47;8.50;;;9.60;99.90;;;;;;5057388;28;20745;-82
2024/03/04 04:53:15;;;;;;;9.07;8.17;;;9.60;99.90;;;;;;5056385;28;20446;-82
2024/03/04 04:55:43;;;;;;;12.47;10.60;;;9.70;99.90;;;;;;5057305;28;20471;-81
2024/03/04 04:58:13;;;;;;;10.00;9.10;;;9.60;99.90;;;;;;5055527;28;21050;-81
2024/03/04 05:00:42;;;;;;;10.43;9.40;;;9.60;99.90;;;;;;5055504;28;20449;-81
2024/03/04 05:03:11;;;;;;;10.17;8.93;;;9.60;99.90;;;;;;5052323;28;20452;-80
2024/03/04 05:05:49;;;;;;;9.33;8.37;;;9.60;99.90;;;;;;5056479;28;20495;-81
2024/03/04 05:08:17;;;;;;;12.37;8.63;;;9.70;99.90;;;;;;5054215;28;20462;-82
2024/03/04 05:10:45;;;;;;;9.47;8.53;;;9.70;99.90;;;;;;5059141;28;20454;-82
2024/03/04 05:13:13;;;;;;;10.43;9.30;;;9.80;99.90;;;;;;5057977;28;20522;-82
2024/03/04 05:15:43;;;;;;;10.03;9.00;;;9.80;99.90;;;;;;5056737;28;20868;-82
2024/03/04 05:18:11;;;;;;;10.10;9.10;;;9.90;99.90;;;;;;5057748;28;20466;-80
2024/03/04 05:20:39;;;;;;;13.20;10.33;;;9.90;99.90;;;;;;5058208;28;20963;-82
2024/03/04 05:23:22;;;;;;;9.63;8.73;;;9.90;99.90;;;;;;5055478;28;20451;-81
2024/03/04 05:25:51;;;;;;;10.60;9.57;;;9.90;99.90;;;;;;5058977;28;20517;-80
2024/03/04 05:28:19;;;;;;;10.30;9.20;;;9.90;99.90;;;;;;5057421;28;20450;-79
2024/03/04 05:30:48;;;;;;;10.70;9.53;;;10.00;99.90;;;;;;5056737;28;20489;-82
2024/03/04 05:33:17;;;;;;;11.07;9.43;;;10.00;99.90;;;;;;5050771;28;20460;-80
2024/03/04 05:35:45;;;;;;;10.67;9.57;;;10.00;99.90;;;;;;5057734;28;21034;-80
2024/03/04 05:38:13;;;;;;;10.50;9.40;;;10.00;99.90;;;;;;5057518;28;20552;-77
2024/03/04 05:40:41;;;;;;;10.70;9.20;;;10.00;99.90;;;;;;5053071;28;20458;-80
2024/03/04 05:43:10;;;;;;;12.93;9.40;;;10.10;99.90;;;;;;5049080;28;20502;-80
2024/03/04 05:45:38;;;;;;;11.40;9.40;;;10.10;99.90;;;;;;5056257;28;20532;-80
2024/03/04 05:48:08;;;;;;;15.40;9.53;;;10.10;99.90;;;;;;5055984;28;20737;-80
2024/03/04 05:50:37;;;;;;;15.93;10.70;;;10.10;99.90;;;;;;5052701;28;20993;-81
2024/03/04 05:53:05;;;;;;;11.13;9.83;;;10.10;99.90;;;;;;5053691;28;20539;-83
2024/03/04 05:55:33;;;;;;;10.50;9.30;;;10.00;99.90;;;;;;5055297;28;20443;-80
2024/03/04 05:58:01;;;;;;;11.70;10.60;;;10.10;99.90;;;;;;5048890;28;20446;-78
2024/03/04 06:00:31;;;;;;;11.93;10.20;;;10.10;99.90;;;;;;5053622;28;20458;-78
2024/03/04 06:03:00;;;;;;;12.30;9.70;;;10.10;99.90;;;;;;5054979;28;20458;-80
2024/03/04 06:05:29;;;;;;;11.67;9.90;;;10.10;99.90;;;;;;5061688;28;20478;-80
2024/03/04 06:07:59;;;;;;;11.90;10.23;;;10.10;99.90;;;;;;5055905;28;20484;-77
2024/03/04 06:10:28;;;;;;;14.43;10.17;;;10.20;99.90;;;;;;5053957;28;20452;-79
2024/03/04 06:12:56;;;;;;;12.00;10.27;;;10.20;99.90;;;;;;5056364;28;20468;-80
2024/03/04 06:15:24;;;;;;;14.60;11.23;;;10.20;99.90;;;;;;5055647;28;20445;-81
2024/03/04 06:17:52;;;;;;;14.70;11.37;;;10.30;99.90;;;;;;5058350;28;20439;-78
2024/03/04 06:20:20;;;;;;;15.10;10.83;;;10.20;99.90;;;;;;5056595;28;20443;-80
2024/03/04 06:22:50;;;;;;;12.87;11.03;;;10.30;99.90;;;;;;5056516;28;20457;-79
2024/03/04 06:25:18;;;;;;;13.73;10.17;;;10.30;99.90;;;;;;5061411;28;20578;-76
2024/03/04 06:27:46;;;;;;;13.77;11.23;;;10.20;1.00;;;;;;5059309;28;21149;-78
2024/03/04 06:30:15;;;;;;;14.17;11.53;;;10.30;1.00;;;;;;5056229;28;20454;-79
2024/03/04 06:32:44;;;;;;;14.63;11.23;;;10.20;1.00;;;;;;5059296;28;20444;-78
2024/03/04 06:35:12;;;;;;;15.13;11.37;;;10.20;1.00;;;;;;5052334;28;20443;-79
2024/03/04 06:37:40;;;;;;;15.33;11.90;;;10.30;1.00;;;;;;5058170;28;20459;-79
2024/03/04 06:40:11;;;;;;;15.40;11.50;;;10.20;1.00;;;;;;5057501;28;20529;-80
2024/03/04 06:42:39;;;;;;;14.50;12.10;;;10.20;1.00;;;;;;5062194;28;20458;-78
2024/03/04 06:45:08;;;;;;;13.90;11.03;;;10.30;1.00;;;;;;5059585;28;20475;-79
2024/03/04 06:47:36;;;;;;;15.07;11.23;;;10.30;1.00;;;;;;5056932;28;20480;-80
2024/03/04 06:50:06;;;;;;;16.43;12.30;;;10.30;1.00;;;;;;5056944;28;20465;-79
2024/03/04 06:52:34;;;;;;;15.80;11.20;;;10.30;1.00;;;;;;5058837;28;20495;-80
2024/03/04 06:55:03;;;;;;;15.60;12.37;;;10.30;1.00;;;;;;5055449;28;20963;-79
2024/03/04 06:57:32;;;;;;;16.50;11.20;;;10.20;1.00;;;;;;5059808;28;21207;-78
2024/03/04 07:00:03;;;;;;;15.40;11.90;;;10.20;1.00;;;;;;5056118;28;20443;-79
2024/03/04 07:02:31;;;;;;;16.23;13.00;;;10.30;1.00;;;;;;5055878;28;20549;-78
2024/03/04 07:04:59;;;;;;;14.87;12.03;;;10.20;1.00;;;;;;5058647;28;20486;-79
2024/03/04 07:07:27;;;;;;;12.80;11.10;;;10.20;4.10;;;;;;5052948;28;20481;-79
2024/03/04 07:09:56;;;;;;;15.80;13.80;;;10.20;31.90;;;;;;5056948;28;20454;-79
2024/03/04 07:12:24;;;;;;;16.73;11.43;;;10.30;18.60;;;;;;5055465;28;20545;-77
2024/03/04 07:14:53;;;;;;;13.40;11.33;;;10.20;68.30;;;;;;5058888;28;20435;-79
2024/03/04 07:17:21;;;;;;;17.43;12.87;;;10.20;99.90;;;;;;5056894;28;20471;-82
2024/03/04 07:19:50;;;;;;;18.23;12.13;;;10.20;99.90;;;;;;5056077;28;20973;-81
2024/03/04 07:22:18;;;;;;;14.57;12.97;;;10.30;99.90;;;;;;5053333;28;20526;-80
2024/03/04 07:24:46;;;;;;;14.50;12.50;;;10.30;99.90;;;;;;5057473;28;20454;-80
2024/03/04 07:27:14;;;;;;;18.23;12.60;;;10.40;99.90;;;;;;5058107;28;20494;-81
2024/03/04 07:29:42;;;;;;;16.27;12.63;;;10.40;99.90;;;;;;5054089;28;20459;-79
2024/03/04 07:32:23;;;;;;;19.40;14.13;;;10.30;99.90;;;;;;5056361;28;20439;-79
2024/03/04 07:34:51;;;;;;;16.43;13.00;;;10.30;99.90;;;;;;5055084;28;21011;-81
2024/03/04 07:37:19;;;;;;;22.63;14.67;;;10.30;99.90;;;;;;5053848;28;20482;-80
2024/03/04 07:39:48;;;;;;;17.33;14.03;;;10.30;99.90;;;;;;5056903;28;20474;-82
2024/03/04 07:42:16;;;;;;;19.37;14.40;;;10.30;99.90;;;;;;5057412;28;20435;-80
2024/03/04 07:44:45;;;;;;;17.73;15.43;;;10.30;99.90;;;;;;5055230;28;21053;-80
2024/03/04 07:47:13;;;;;;;18.73;14.73;;;10.30;99.90;;;;;;5057107;28;20555;-80
2024/03/04 07:49:43;;;;;;;20.23;15.30;;;10.30;99.90;;;;;;5054899;28;20782;-79
2024/03/04 07:52:12;;;;;;;19.50;15.13;;;10.30;99.90;;;;;;5057994;28;20453;-78
2024/03/04 07:54:40;;;;;;;17.83;14.77;;;10.30;99.90;;;;;;5055660;28;21109;-78
2024/03/04 07:57:08;;;;;;;20.57;14.27;;;10.30;99.90;;;;;;5053701;28;20474;-78
2024/03/04 07:59:47;;;;;;;22.50;14.87;;;10.30;99.90;;;;;;5056281;28;20466;-76
2024/03/04 08:02:15;;;;;;;20.00;13.50;;;10.30;99.90;;;;;;5054199;28;20546;-78
2024/03/04 08:04:45;;;;;;;24.10;15.40;;;10.30;99.90;;;;;;5053400;28;20451;-75
2024/03/04 08:07:13;;;;;;;20.97;15.50;;;10.30;99.90;;;;;;5052825;28;20536;-77
2024/03/04 08:09:41;;;;;;;21.67;14.70;;;10.30;1.00;;;;;;5051182;28;20980;-78
2024/03/04 08:12:09;;;;;;;20.77;13.90;;;10.30;1.00;;;;;;5056715;28;20460;-77
2024/03/04 08:14:38;;;;;;;17.97;13.13;;;10.30;1.00;;;;;;5056429;28;20980;-78
2024/03/04 08:17:06;;;;;;;19.10;13.60;;;10.30;1.00;;;;;;5055050;28;20498;-78
2024/03/04 08:19:34;;;;;;;19.50;14.77;;;10.30;1.00;;;;;;5057612;28;20565;-78
2024/03/04 08:22:05;;;;;;;20.40;15.37;;;10.30;1.00;;;;;;5056146;28;20963;-79
2024/03/04 08:24:34;;;;;;;20.60;15.17;;;10.30;1.00;;;;;;5053472;28;20448;-78
2024/03/04 08:27:02;;;;;;;21.37;15.77;;;10.30;99.90;;;;;;5054662;28;20497;-78
2024/03/04 08:29:31;;;;;;;22.83;16.43;;;10.40;99.90;;;;;;5056611;28;20459;-80
2024/03/04 08:31:59;;;;;;;20.60;14.60;;;10.30;99.90;;;;;;5048057;28;20490;-80
2024/03/04 08:34:29;;;;;;;23.00;15.23;;;10.30;1.00;;;;;;5054371;28;20910;-80
2024/03/04 08:36:57;;;;;;;23.00;14.80;;;10.40;1.00;;;;;;5054797;28;20482;-80
2024/03/04 08:39:27;;;;;;;19.43;14.30;;;10.30;99.90;;;;;;5054607;28;21294;-80
2024/03/04 08:41:55;;;;;;;23.10;15.30;;;10.30;1.00;;;;;;5056182;28;20451;-80
2024/03/04 08:44:24;;;;;;;22.23;14.40;;;10.40;1.00;;;;;;5057192;28;20494;-80
2024/03/04 08:46:52;;;;;;;21.63;15.63;;;10.40;1.00;;;;;;5056471;28;20548;-79
2024/03/04 08:49:20;;;;;;;21.37;15.53;;;10.40;99.90;;;;;;5055053;28;20894;-79
2024/03/04 08:51:48;;;;;;;21.27;15.20;;;10.40;1.00;;;;;;5057328;28;21018;-78
2024/03/04 08:54:17;;;;;;;19.13;12.67;;;10.40;1.00;;;;;;5053867;28;20981;-79
2024/03/04 08:56:46;;;;;;;19.73;13.70;;;10.40;1.00;;;;;;5054440;28;20467;-79
2024/03/04 08:59:15;;;;;;;20.00;14.90;;;10.50;1.00;;;;;;5053192;28;20444;-80
2024/03/04 09:01:44;;;;;;;19.07;13.60;;;10.50;99.90;;;;;;5056203;28;20461;-78
2024/03/04 09:04:13;;;;;;;19.20;13.90;;;10.50;99.90;;;;;;5054521;28;20454;-79
2024/03/04 09:06:41;;;;;;;19.87;14.27;;;10.50;99.90;;;;;;5055069;28;20492;-79
2024/03/04 09:09:11;;;;;;;19.10;13.30;;;10.50;1.00;;;;;;5054511;28;21077;-79
2024/03/04 09:11:39;;;;;;;19.20;14.27;;;10.50;1.00;;;;;;5054597;28;20447;-78
2024/03/04 09:14:09;;;;;;;25.37;15.20;;;10.50;99.90;;;;;;5054090;28;20462;-78
2024/03/04 09:16:37;;;;;;;20.07;14.97;;;10.50;1.00;;;;;;5040142;28;20469;-78
2024/03/04 09:19:05;;;;;;;21.63;14.70;;;10.50;1.00;;;;;;5055950;28;21015;-80
2024/03/04 09:21:33;;;;;;;22.30;14.63;;;10.50;1.00;;;;;;5052880;28;20518;-80
2024/03/04 09:24:01;;;;;;;20.53;14.53;;;10.50;1.00;;;;;;5056463;28;20439;-81
2024/03/04 09:26:30;;;;;;;22.80;15.30;;;10.50;1.00;;;;;;5055934;28;20471;-80
2024/03/04 09:28:58;;;;;;;20.27;14.83;;;10.50;1.00;;;;;;5056519;28;20552;-79
2024/03/04 09:31:29;;;;;;;18.20;13.97;;;10.50;1.00;;;;;;5050496;28;20452;-79
2024/03/04 09:33:57;;;;;;;21.40;15.47;;;10.50;1.00;;;;;;5056995;28;20454;-77
2024/03/04 09:36:25;;;;;;;22.83;15.73;;;10.60;1.00;;;;;;5055259;28;20467;-79
2024/03/04 09:38:53;;;;;;;37.80;19.20;;;10.70;1.00;;;;;;5053717;28;20455;-79
2024/03/04 09:41:22;;;;;;;29.00;16.20;;;10.60;1.00;;;;;;5054553;28;20505;-80
2024/03/04 09:43:50;;;;;;;24.27;17.40;;;10.60;1.00;;;;;;5053887;28;20453;-79
2024/03/04 09:46:20;;;;;;;20.57;15.37;;;10.60;1.00;;;;;;5055540;28;20483;-78
2024/03/04 09:48:51;;;;;;;20.70;14.90;;;10.60;1.00;;;;;;5059757;28;20455;-80
2024/03/04 09:51:24;;;;;;;18.17;14.33;;;10.70;1.00;;;;;;5051651;28;20462;-79
2024/03/04 09:53:54;;;;;;;19.70;15.07;;;10.70;1.00;;;;;;5054033;28;20517;-79
2024/03/04 09:56:22;;;;;;;20.63;14.67;;;10.70;1.00;;;;;;5055664;28;20557;-80
2024/03/04 09:58:51;;;;;;;19.37;14.83;;;10.70;1.00;;;;;;5052964;28;20459;-80
2024/03/04 10:01:19;;;;;;;17.43;14.37;;;10.60;1.00;;;;;;5055794;28;20497;-79
2024/03/04 10:03:50;;;;;;;20.50;15.73;;;10.60;1.00;;;;;;5057538;28;20459;-79
2024/03/04 10:06:18;;;;;;;22.40;15.17;;;10.60;1.00;;;;;;5059958;28;21059;-79
2024/03/04 10:08:47;;;;;;;22.27;16.10;;;10.70;1.00;;;;;;5058637;28;20448;-78
2024/03/04 10:11:15;;;;;;;21.07;16.70;;;10.70;1.00;;;;;;5054581;28;20989;-80
2024/03/04 10:13:43;;;;;;;21.17;14.90;;;10.70;1.00;;;;;;5055341;28;20562;-79
2024/03/04 10:16:15;;;;;;;23.00;15.60;;;10.70;1.00;;;;;;5055837;28;20478;-78
2024/03/04 10:18:56;;;;;;;21.90;15.70;;;10.70;1.00;;;;;;5052377;28;21051;-78
2024/03/04 10:21:31;;;;;;;20.80;16.60;;;10.70;99.90;;;;;;5055592;28;20973;-78
2024/03/04 10:24:07;;;;;;;21.00;15.43;;;10.70;99.90;;;;;;5055507;28;20465;-80
2024/03/04 10:26:41;;;;;;;26.13;17.13;;;10.80;99.90;;;;;;5053235;28;20482;-80
2024/03/04 10:29:12;;;;;;;26.90;18.37;;;10.80;99.90;;;;;;5053386;28;20448;-79
2024/03/04 10:31:50;;;;;;;27.27;16.53;;;10.80;99.90;;;;;;5058121;28;20465;-79
2024/03/04 10:34:19;;;;;;;23.30;16.47;;;10.80;99.90;;;;;;5056100;28;20473;-79
2024/03/04 10:36:51;;;;;;;29.80;18.20;;;10.80;99.90;;;;;;5050689;28;20468;-78
2024/03/04 10:39:19;;;;;;;26.83;17.40;;;10.80;99.90;;;;;;5056571;28;20441;-79
2024/03/04 10:41:48;;;;;;;26.33;16.80;;;10.90;99.90;;;;;;5055831;28;20455;-80
2024/03/04 10:44:27;;;;;;;32.40;21.83;;;10.80;99.90;;;;;;5060996;28;20458;-79
2024/03/04 10:46:56;;;;;;;31.63;20.70;;;10.80;99.90;;;;;;5052233;28;20220;-80
2024/03/04 10:49:30;;;;;;;30.83;19.77;;;10.90;99.90;;;;;;5059613;28;20443;-81
2024/03/04 10:52:00;;;;;;;29.93;19.30;;;10.90;99.90;;;;;;5061176;28;20900;-80
2024/03/04 10:54:41;;;;;;;26.33;18.87;;;10.90;99.90;;;;;;5058926;28;20445;-80
2024/03/04 10:57:26;;;;;;;27.57;19.57;;;10.90;99.90;;;;;;5056364;28;20842;-81
2024/03/04 10:59:57;;;;;;;28.17;18.70;;;10.90;99.90;;;;;;5055354;28;21170;-80
2024/03/04 11:02:38;;;;;;;27.40;19.20;;;11.00;99.90;;;;;;5058235;28;20448;-81
2024/03/04 11:05:09;;;;;;;24.97;17.57;;;11.00;99.90;;;;;;5057081;28;21018;-79
2024/03/04 11:07:43;;;;;;;27.10;18.30;;;11.00;99.90;;;;;;5057575;28;20471;-78
2024/03/04 11:10:20;;;;;;;31.57;18.13;;;10.90;99.90;;;;;;5057283;28;20507;-80
2024/03/04 11:12:58;;;;;;;29.00;18.20;;;10.90;99.90;;;;;;5058743;28;20440;-79
2024/03/04 11:15:32;;;;;;;34.13;19.03;;;10.90;99.90;;;;;;5054883;28;20457;-79
2024/03/04 11:18:05;;;;;;;26.57;18.47;;;10.90;99.90;;;;;;5055903;28;20800;-80
2024/03/04 11:20:33;;;;;;;31.27;18.40;;;10.90;99.90;;;;;;5058570;28;20458;-81
2024/03/04 11:23:03;;;;;;;30.10;19.00;;;11.00;99.90;;;;;;5058540;28;20443;-77
2024/03/04 11:25:32;;;;;;;26.53;17.67;;;11.00;99.90;;;;;;5056533;28;20451;-79
2024/03/04 11:28:00;;;;;;;27.47;19.17;;;11.00;99.90;;;;;;5055233;28;20497;-80
2024/03/04 11:30:29;;;;;;;28.17;19.63;;;11.00;99.90;;;;;;5058257;28;20539;-79
2024/03/04 11:32:57;;;;;;;25.20;17.70;;;11.00;99.90;;;;;;5058123;28;20456;-79
2024/03/04 11:35:28;;;;;;;26.00;17.20;;;10.90;99.90;;;;;;5051020;28;20452;-79
2024/03/04 11:38:07;;;;;;;27.43;18.47;;;11.00;99.90;;;;;;5059236;28;20451;-82
2024/03/04 11:40:36;;;;;;;26.53;17.97;;;11.10;85.20;;;;;;5060801;28;20471;-79
2024/03/04 11:43:04;;;;;;;34.10;18.23;;;11.10;58.70;;;;;;5056890;28;20443;-79
2024/03/04 11:45:34;;;;;;;28.37;19.13;;;11.10;74.70;;;;;;5059965;28;20493;-82
2024/03/04 11:48:02;;;;;;;29.23;17.80;;;11.00;69.80;;;;;;5060753;28;20506;-81
2024/03/04 11:50:44;;;;;;;29.87;18.60;;;11.00;99.90;;;;;;5064507;28;20454;-81
2024/03/04 11:53:26;;;;;;;31.77;18.30;;;11.00;99.90;;;;;;5061090;28;21220;-81
2024/03/04 11:55:55;;;;;;;25.40;16.93;;;11.10;99.90;;;;;;5059260;28;20476;-80
2024/03/04 11:58:24;;;;;;;29.23;19.07;;;11.00;99.90;;;;;;5058185;28;20462;-80
2024/03/04 12:00:54;;;;;;;28.70;18.60;;;11.10;99.90;;;;;;5058625;28;20466;-79
2024/03/04 12:03:36;;;;;;;28.13;18.60;;;11.10;98.70;;;;;;5057396;28;20450;-79
2024/03/04 12:06:06;;;;;;;33.40;19.20;;;11.10;99.90;;;;;;5061427;28;20823;-82
2024/03/04 12:08:35;;;;;;;26.80;18.17;;;11.10;97.00;;;;;;5059848;28;20544;-79
2024/03/04 12:11:24;;;;;;;31.40;20.87;;;11.10;52.90;;;;;;5059626;28;20435;-81
2024/03/04 12:13:54;;;;;;;33.10;20.00;;;11.10;66.60;;;;;;5056868;28;20451;-81
2024/03/04 12:16:22;;;;;;;35.67;21.13;;;11.20;97.10;;;;;;5059629;28;20556;-80
2024/03/04 12:18:51;;;;;;;28.30;20.57;;;11.20;99.90;;;;;;5055467;28;20530;-80
2024/03/04 12:21:19;;;;;;;30.03;20.27;;;11.30;99.90;;;;;;5058354;28;20452;-81
2024/03/04 12:23:49;;;;;;;26.57;20.10;;;11.30;75.80;;;;;;5052625;28;20997;-80
2024/03/04 12:26:17;;;;;;;33.70;21.43;;;11.30;35.20;;;;;;5061221;28;20472;-79
2024/03/04 12:28:57;;;;;;;30.07;19.97;;;11.30;2.00;;;;;;5057365;28;20562;-81
2024/03/04 12:31:25;;;;;;;30.23;19.13;;;11.30;22.90;;;;;;5057160;28;20496;-79
2024/03/04 12:33:54;;;;;;;36.47;22.13;;;11.20;47.00;;;;;;5057654;28;21057;-80
2024/03/04 12:36:24;;;;;;;36.03;21.23;;;11.20;52.10;;;;;;5059854;28;20472;-79
2024/03/04 12:38:56;;;;;;;32.33;20.87;;;11.20;53.70;;;;;;5063885;28;20529;-80
2024/03/04 12:41:25;;;;;;;30.40;21.23;;;11.30;19.30;;;;;;5060796;28;20456;-80
2024/03/04 12:43:55;;;;;;;38.00;22.57;;;11.20;47.60;;;;;;5057050;28;21389;-81
2024/03/04 12:46:23;;;;;;;36.50;21.90;;;11.20;53.90;;;;;;5057780;28;20467;-79
2024/03/04 12:48:52;;;;;;;42.73;24.20;;;11.20;90.90;;;;;;5058622;28;20473;-79